sensor_id;sensor_type;location;lat;lon;timestamp;P1;durP1;ratioP1;P2;durP2;ratioP2
69542;SDS011;56762;49.494;11.768;2023-02-28T00:01:06;3.67;;;1.40;;
69542;SDS011;56762;49.494;11.768;2023-02-28T00:03:34;4.90;;;1.25;;
69542;SDS011;56762;49.494;11.768;2023-02-28T00:06:04;5.20;;;1.83;;
69542;SDS011;56762;49.494;11.768;2023-02-28T00:08:34;4.07;;;1.27;;
69542;SDS011;56762;49.494;11.768;2023-02-28T00:11:02;2.88;;;1.13;;
69542;SDS011;56762;49.494;11.768;2023-02-28T00:13:30;4.95;;;1.50;;
69542;SDS011;56762;49.494;11.768;2023-02-28T00:15:59;4.13;;;1.42;;
69542;SDS011;56762;49.494;11.768;2023-02-28T00:18:27;5.93;;;1.30;;
69542;SDS011;56762;49.494;11.768;2023-02-28T00:20:56;4.47;;;1.70;;
69542;SDS011;56762;49.494;11.768;2023-02-28T00:23:26;6.55;;;1.48;;
69542;SDS011;56762;49.494;11.768;2023-02-28T00:25:55;4.50;;;1.40;;
69542;SDS011;56762;49.494;11.768;2023-02-28T00:28:23;3.88;;;1.20;;
69542;SDS011;56762;49.494;11.768;2023-02-28T00:30:52;6.83;;;1.60;;
69542;SDS011;56762;49.494;11.768;2023-02-28T00:33:20;3.67;;;1.60;;
69542;SDS011;56762;49.494;11.768;2023-02-28T00:35:48;5.35;;;1.45;;
69542;SDS011;56762;49.494;11.768;2023-02-28T00:38:16;6.05;;;1.85;;
69542;SDS011;56762;49.494;11.768;2023-02-28T00:40:46;5.25;;;1.92;;
69542;SDS011;56762;49.494;11.768;2023-02-28T00:43:14;3.87;;;1.37;;
69542;SDS011;56762;49.494;11.768;2023-02-28T00:45:41;2.33;;;1.05;;
69542;SDS011;56762;49.494;11.768;2023-02-28T00:48:10;3.70;;;1.30;;
69542;SDS011;56762;49.494;11.768;2023-02-28T00:50:38;6.35;;;1.50;;
69542;SDS011;56762;49.494;11.768;2023-02-28T00:53:06;3.88;;;1.30;;
69542;SDS011;56762;49.494;11.768;2023-02-28T00:55:34;4.93;;;1.60;;
69542;SDS011;56762;49.494;11.768;2023-02-28T00:58:03;6.70;;;1.58;;
69542;SDS011;56762;49.494;11.768;2023-02-28T01:00:31;4.40;;;1.42;;
69542;SDS011;56762;49.494;11.768;2023-02-28T01:02:59;5.22;;;1.35;;
69542;SDS011;56762;49.494;11.768;2023-02-28T01:05:27;4.57;;;1.42;;
69542;SDS011;56762;49.494;11.768;2023-02-28T01:07:55;6.20;;;2.47;;
69542;SDS011;56762;49.494;11.768;2023-02-28T01:10:24;7.78;;;2.15;;
69542;SDS011;56762;49.494;11.768;2023-02-28T01:12:53;5.38;;;2.50;;
69542;SDS011;56762;49.494;11.768;2023-02-28T01:15:22;6.82;;;2.17;;
69542;SDS011;56762;49.494;11.768;2023-02-28T01:17:50;4.10;;;1.95;;
69542;SDS011;56762;49.494;11.768;2023-02-28T01:20:18;5.13;;;2.23;;
69542;SDS011;56762;49.494;11.768;2023-02-28T01:22:46;7.97;;;2.40;;
69542;SDS011;56762;49.494;11.768;2023-02-28T01:25:14;6.78;;;2.72;;
69542;SDS011;56762;49.494;11.768;2023-02-28T01:27:43;8.80;;;3.05;;
69542;SDS011;56762;49.494;11.768;2023-02-28T01:30:12;8.65;;;3.13;;
69542;SDS011;56762;49.494;11.768;2023-02-28T01:32:42;10.10;;;3.23;;
69542;SDS011;56762;49.494;11.768;2023-02-28T01:35:10;11.27;;;3.70;;
69542;SDS011;56762;49.494;11.768;2023-02-28T01:37:38;6.75;;;2.63;;
69542;SDS011;56762;49.494;11.768;2023-02-28T01:40:06;6.70;;;2.42;;
69542;SDS011;56762;49.494;11.768;2023-02-28T01:42:36;5.53;;;1.90;;
69542;SDS011;56762;49.494;11.768;2023-02-28T01:45:06;8.60;;;2.33;;
69542;SDS011;56762;49.494;11.768;2023-02-28T01:47:48;8.35;;;3.15;;
69542;SDS011;56762;49.494;11.768;2023-02-28T01:50:20;6.82;;;2.05;;
69542;SDS011;56762;49.494;11.768;2023-02-28T01:52:52;7.10;;;2.30;;
69542;SDS011;56762;49.494;11.768;2023-02-28T01:55:24;9.80;;;2.97;;
69542;SDS011;56762;49.494;11.768;2023-02-28T01:57:55;4.47;;;2.30;;
69542;SDS011;56762;49.494;11.768;2023-02-28T02:00:26;6.55;;;2.25;;
69542;SDS011;56762;49.494;11.768;2023-02-28T02:02:56;4.82;;;1.85;;
69542;SDS011;56762;49.494;11.768;2023-02-28T02:05:28;7.95;;;2.72;;
69542;SDS011;56762;49.494;11.768;2023-02-28T02:08:01;8.07;;;2.13;;
69542;SDS011;56762;49.494;11.768;2023-02-28T02:10:32;6.13;;;2.30;;
69542;SDS011;56762;49.494;11.768;2023-02-28T02:13:16;4.75;;;1.92;;
69542;SDS011;56762;49.494;11.768;2023-02-28T02:15:54;5.43;;;1.70;;
69542;SDS011;56762;49.494;11.768;2023-02-28T02:18:30;5.70;;;1.90;;
69542;SDS011;56762;49.494;11.768;2023-02-28T02:21:11;4.60;;;1.70;;
69542;SDS011;56762;49.494;11.768;2023-02-28T02:24:18;6.13;;;2.07;;
69542;SDS011;56762;49.494;11.768;2023-02-28T02:27:04;6.78;;;1.67;;
69542;SDS011;56762;49.494;11.768;2023-02-28T02:36:14;6.65;;;1.85;;
69542;SDS011;56762;49.494;11.768;2023-02-28T02:38:50;8.70;;;1.97;;
69542;SDS011;56762;49.494;11.768;2023-02-28T02:41:24;5.38;;;1.90;;
69542;SDS011;56762;49.494;11.768;2023-02-28T02:43:58;6.55;;;2.50;;
69542;SDS011;56762;49.494;11.768;2023-02-28T02:46:32;5.97;;;2.10;;
69542;SDS011;56762;49.494;11.768;2023-02-28T02:49:03;4.10;;;1.90;;
69542;SDS011;56762;49.494;11.768;2023-02-28T02:51:35;8.40;;;2.20;;
69542;SDS011;56762;49.494;11.768;2023-02-28T02:54:07;6.40;;;2.20;;
69542;SDS011;56762;49.494;11.768;2023-02-28T02:56:39;5.82;;;2.40;;
69542;SDS011;56762;49.494;11.768;2023-02-28T02:59:10;5.45;;;2.13;;
69542;SDS011;56762;49.494;11.768;2023-02-28T03:01:40;9.68;;;2.30;;
69542;SDS011;56762;49.494;11.768;2023-02-28T03:04:10;6.23;;;2.27;;
69542;SDS011;56762;49.494;11.768;2023-02-28T03:06:43;6.03;;;2.63;;
69542;SDS011;56762;49.494;11.768;2023-02-28T03:09:11;6.97;;;2.33;;
69542;SDS011;56762;49.494;11.768;2023-02-28T03:11:39;6.53;;;2.17;;
69542;SDS011;56762;49.494;11.768;2023-02-28T03:14:11;6.75;;;2.42;;
69542;SDS011;56762;49.494;11.768;2023-02-28T03:19:51;6.25;;;1.95;;
69542;SDS011;56762;49.494;11.768;2023-02-28T03:22:36;5.95;;;2.30;;
69542;SDS011;56762;49.494;11.768;2023-02-28T03:25:17;8.82;;;2.08;;
69542;SDS011;56762;49.494;11.768;2023-02-28T03:27:53;8.40;;;2.40;;
69542;SDS011;56762;49.494;11.768;2023-02-28T03:30:29;10.93;;;3.00;;
69542;SDS011;56762;49.494;11.768;2023-02-28T03:33:05;8.30;;;3.25;;
69542;SDS011;56762;49.494;11.768;2023-02-28T03:35:37;7.43;;;3.08;;
69542;SDS011;56762;49.494;11.768;2023-02-28T03:38:10;8.70;;;3.05;;
69542;SDS011;56762;49.494;11.768;2023-02-28T03:40:44;7.05;;;2.67;;
69542;SDS011;56762;49.494;11.768;2023-02-28T03:43:18;7.30;;;2.57;;
69542;SDS011;56762;49.494;11.768;2023-02-28T03:45:51;9.52;;;3.55;;
69542;SDS011;56762;49.494;11.768;2023-02-28T03:48:21;8.70;;;2.78;;
69542;SDS011;56762;49.494;11.768;2023-02-28T03:50:54;18.92;;;5.25;;
69542;SDS011;56762;49.494;11.768;2023-02-28T03:53:27;12.48;;;4.38;;
69542;SDS011;56762;49.494;11.768;2023-02-28T03:56:01;15.23;;;4.40;;
69542;SDS011;56762;49.494;11.768;2023-02-28T03:58:36;11.43;;;3.40;;
69542;SDS011;56762;49.494;11.768;2023-02-28T04:01:07;9.02;;;3.47;;
69542;SDS011;56762;49.494;11.768;2023-02-28T04:03:39;19.10;;;4.78;;
69542;SDS011;56762;49.494;11.768;2023-02-28T04:06:07;10.98;;;3.42;;
69542;SDS011;56762;49.494;11.768;2023-02-28T04:08:44;12.10;;;3.17;;
69542;SDS011;56762;49.494;11.768;2023-02-28T04:11:16;16.10;;;5.68;;
69542;SDS011;56762;49.494;11.768;2023-02-28T04:13:48;14.38;;;5.15;;
69542;SDS011;56762;49.494;11.768;2023-02-28T04:16:16;13.63;;;4.20;;
69542;SDS011;56762;49.494;11.768;2023-02-28T04:18:59;9.80;;;3.95;;
69542;SDS011;56762;49.494;11.768;2023-02-28T04:21:31;5.73;;;2.80;;
69542;SDS011;56762;49.494;11.768;2023-02-28T04:24:02;8.52;;;3.40;;
69542;SDS011;56762;49.494;11.768;2023-02-28T04:26:31;7.13;;;3.38;;
69542;SDS011;56762;49.494;11.768;2023-02-28T04:29:00;9.77;;;4.25;;
69542;SDS011;56762;49.494;11.768;2023-02-28T04:31:30;8.23;;;3.30;;
69542;SDS011;56762;49.494;11.768;2023-02-28T04:33:59;8.17;;;3.67;;
69542;SDS011;56762;49.494;11.768;2023-02-28T04:36:28;8.15;;;3.55;;
69542;SDS011;56762;49.494;11.768;2023-02-28T04:38:56;6.82;;;3.13;;
69542;SDS011;56762;49.494;11.768;2023-02-28T04:41:26;8.45;;;3.47;;
69542;SDS011;56762;49.494;11.768;2023-02-28T04:43:57;7.18;;;3.17;;
69542;SDS011;56762;49.494;11.768;2023-02-28T04:46:25;9.40;;;3.57;;
69542;SDS011;56762;49.494;11.768;2023-02-28T04:48:53;9.68;;;3.70;;
69542;SDS011;56762;49.494;11.768;2023-02-28T04:51:22;8.15;;;3.78;;
69542;SDS011;56762;49.494;11.768;2023-02-28T04:53:50;7.80;;;2.92;;
69542;SDS011;56762;49.494;11.768;2023-02-28T04:56:18;7.75;;;3.38;;
69542;SDS011;56762;49.494;11.768;2023-02-28T04:58:47;6.67;;;2.83;;
69542;SDS011;56762;49.494;11.768;2023-02-28T05:01:19;7.57;;;2.95;;
69542;SDS011;56762;49.494;11.768;2023-02-28T05:03:49;17.50;;;6.18;;
69542;SDS011;56762;49.494;11.768;2023-02-28T05:06:18;11.88;;;5.13;;
69542;SDS011;56762;49.494;11.768;2023-02-28T05:08:47;9.05;;;3.80;;
69542;SDS011;56762;49.494;11.768;2023-02-28T05:11:16;8.57;;;3.30;;
69542;SDS011;56762;49.494;11.768;2023-02-28T05:13:48;6.93;;;3.03;;
69542;SDS011;56762;49.494;11.768;2023-02-28T05:16:17;8.85;;;3.55;;
69542;SDS011;56762;49.494;11.768;2023-02-28T05:18:46;8.07;;;3.13;;
69542;SDS011;56762;49.494;11.768;2023-02-28T05:21:21;6.60;;;2.75;;
69542;SDS011;56762;49.494;11.768;2023-02-28T05:23:53;9.97;;;3.43;;
69542;SDS011;56762;49.494;11.768;2023-02-28T05:26:21;8.52;;;3.15;;
69542;SDS011;56762;49.494;11.768;2023-02-28T05:28:50;8.75;;;3.30;;
69542;SDS011;56762;49.494;11.768;2023-02-28T05:31:18;8.75;;;3.15;;
69542;SDS011;56762;49.494;11.768;2023-02-28T05:33:47;7.28;;;2.95;;
69542;SDS011;56762;49.494;11.768;2023-02-28T05:36:15;8.20;;;3.40;;
69542;SDS011;56762;49.494;11.768;2023-02-28T05:38:45;7.00;;;2.97;;
69542;SDS011;56762;49.494;11.768;2023-02-28T05:41:14;8.65;;;3.22;;
69542;SDS011;56762;49.494;11.768;2023-02-28T05:43:42;7.75;;;3.30;;
69542;SDS011;56762;49.494;11.768;2023-02-28T05:46:11;9.18;;;3.92;;
69542;SDS011;56762;49.494;11.768;2023-02-28T05:48:41;7.17;;;3.03;;
69542;SDS011;56762;49.494;11.768;2023-02-28T05:51:11;7.85;;;3.63;;
69542;SDS011;56762;49.494;11.768;2023-02-28T05:53:38;8.05;;;3.45;;
69542;SDS011;56762;49.494;11.768;2023-02-28T05:56:08;8.07;;;3.35;;
69542;SDS011;56762;49.494;11.768;2023-02-28T05:59:50;7.60;;;2.97;;
69542;SDS011;56762;49.494;11.768;2023-02-28T06:02:27;6.90;;;3.23;;
69542;SDS011;56762;49.494;11.768;2023-02-28T06:05:29;8.13;;;3.67;;
69542;SDS011;56762;49.494;11.768;2023-02-28T06:08:36;8.77;;;3.47;;
69542;SDS011;56762;49.494;11.768;2023-02-28T06:11:04;7.18;;;3.20;;
69542;SDS011;56762;49.494;11.768;2023-02-28T06:13:33;10.13;;;3.53;;
69542;SDS011;56762;49.494;11.768;2023-02-28T06:16:00;9.37;;;3.00;;
69542;SDS011;56762;49.494;11.768;2023-02-28T06:18:32;10.15;;;4.20;;
69542;SDS011;56762;49.494;11.768;2023-02-28T06:21:00;11.07;;;5.00;;
69542;SDS011;56762;49.494;11.768;2023-02-28T06:23:28;11.43;;;4.55;;
69542;SDS011;56762;49.494;11.768;2023-02-28T06:25:58;21.20;;;7.15;;
69542;SDS011;56762;49.494;11.768;2023-02-28T06:28:28;22.30;;;9.13;;
69542;SDS011;56762;49.494;11.768;2023-02-28T06:31:04;18.08;;;7.65;;
69542;SDS011;56762;49.494;11.768;2023-02-28T06:33:36;13.07;;;5.75;;
69542;SDS011;56762;49.494;11.768;2023-02-28T06:36:06;9.52;;;4.03;;
69542;SDS011;56762;49.494;11.768;2023-02-28T06:38:38;8.45;;;4.03;;
69542;SDS011;56762;49.494;11.768;2023-02-28T06:41:07;9.87;;;4.50;;
69542;SDS011;56762;49.494;11.768;2023-02-28T06:43:38;9.18;;;3.80;;
69542;SDS011;56762;49.494;11.768;2023-02-28T06:46:08;11.43;;;3.92;;
69542;SDS011;56762;49.494;11.768;2023-02-28T06:48:42;8.57;;;4.15;;
69542;SDS011;56762;49.494;11.768;2023-02-28T06:51:11;9.30;;;3.85;;
69542;SDS011;56762;49.494;11.768;2023-02-28T06:53:42;11.53;;;4.50;;
69542;SDS011;56762;49.494;11.768;2023-02-28T06:56:11;11.18;;;4.40;;
69542;SDS011;56762;49.494;11.768;2023-02-28T06:58:42;11.93;;;4.57;;
69542;SDS011;56762;49.494;11.768;2023-02-28T07:01:16;12.32;;;4.85;;
69542;SDS011;56762;49.494;11.768;2023-02-28T07:03:46;25.20;;;7.07;;
69542;SDS011;56762;49.494;11.768;2023-02-28T07:06:18;24.63;;;7.20;;
69542;SDS011;56762;49.494;11.768;2023-02-28T07:08:47;17.38;;;8.05;;
69542;SDS011;56762;49.494;11.768;2023-02-28T07:11:16;13.43;;;6.30;;
69542;SDS011;56762;49.494;11.768;2023-02-28T07:13:47;9.45;;;4.82;;
69542;SDS011;56762;49.494;11.768;2023-02-28T07:16:15;11.32;;;5.18;;
69542;SDS011;56762;49.494;11.768;2023-02-28T07:18:43;10.73;;;4.83;;
69542;SDS011;56762;49.494;11.768;2023-02-28T07:21:13;12.75;;;3.72;;
69542;SDS011;56762;49.494;11.768;2023-02-28T07:23:41;13.63;;;4.75;;
69542;SDS011;56762;49.494;11.768;2023-02-28T07:26:10;10.43;;;4.63;;
69542;SDS011;56762;49.494;11.768;2023-02-28T07:28:41;15.52;;;6.05;;
69542;SDS011;56762;49.494;11.768;2023-02-28T07:31:10;12.50;;;5.50;;
69542;SDS011;56762;49.494;11.768;2023-02-28T07:33:41;12.90;;;4.10;;
69542;SDS011;56762;49.494;11.768;2023-02-28T07:36:10;10.45;;;4.20;;
69542;SDS011;56762;49.494;11.768;2023-02-28T07:38:44;11.75;;;4.70;;
69542;SDS011;56762;49.494;11.768;2023-02-28T07:41:14;9.10;;;4.40;;
69542;SDS011;56762;49.494;11.768;2023-02-28T07:43:42;11.47;;;4.83;;
69542;SDS011;56762;49.494;11.768;2023-02-28T07:46:11;12.48;;;4.88;;
69542;SDS011;56762;49.494;11.768;2023-02-28T07:48:41;12.05;;;4.47;;
69542;SDS011;56762;49.494;11.768;2023-02-28T07:51:09;9.38;;;4.40;;
69542;SDS011;56762;49.494;11.768;2023-02-28T07:53:39;10.73;;;4.47;;
69542;SDS011;56762;49.494;11.768;2023-02-28T07:56:07;11.10;;;4.17;;
69542;SDS011;56762;49.494;11.768;2023-02-28T07:58:37;16.77;;;7.40;;
69542;SDS011;56762;49.494;11.768;2023-02-28T08:01:05;12.95;;;4.93;;
69542;SDS011;56762;49.494;11.768;2023-02-28T08:03:34;13.88;;;5.95;;
69542;SDS011;56762;49.494;11.768;2023-02-28T08:06:02;14.18;;;5.88;;
69542;SDS011;56762;49.494;11.768;2023-02-28T08:08:30;20.40;;;9.30;;
69542;SDS011;56762;49.494;11.768;2023-02-28T08:11:00;13.05;;;5.97;;
69542;SDS011;56762;49.494;11.768;2023-02-28T08:13:29;12.35;;;4.55;;
69542;SDS011;56762;49.494;11.768;2023-02-28T08:15:58;11.10;;;4.38;;
69542;SDS011;56762;49.494;11.768;2023-02-28T08:18:29;11.07;;;4.53;;
69542;SDS011;56762;49.494;11.768;2023-02-28T08:20:57;9.73;;;4.47;;
69542;SDS011;56762;49.494;11.768;2023-02-28T08:23:25;9.77;;;3.88;;
69542;SDS011;56762;49.494;11.768;2023-02-28T08:25:53;8.60;;;4.00;;
69542;SDS011;56762;49.494;11.768;2023-02-28T08:28:23;12.55;;;4.93;;
69542;SDS011;56762;49.494;11.768;2023-02-28T08:30:52;20.17;;;9.35;;
69542;SDS011;56762;49.494;11.768;2023-02-28T08:33:21;10.93;;;5.47;;
69542;SDS011;56762;49.494;11.768;2023-02-28T08:35:51;10.90;;;4.43;;
69542;SDS011;56762;49.494;11.768;2023-02-28T08:38:20;18.50;;;7.57;;
69542;SDS011;56762;49.494;11.768;2023-02-28T08:40:48;15.50;;;6.20;;
69542;SDS011;56762;49.494;11.768;2023-02-28T08:43:16;12.82;;;5.60;;
69542;SDS011;56762;49.494;11.768;2023-02-28T08:45:45;11.10;;;4.10;;
69542;SDS011;56762;49.494;11.768;2023-02-28T08:48:13;8.65;;;4.32;;
69542;SDS011;56762;49.494;11.768;2023-02-28T08:50:44;8.93;;;3.85;;
69542;SDS011;56762;49.494;11.768;2023-02-28T08:53:30;9.48;;;3.10;;
69542;SDS011;56762;49.494;11.768;2023-02-28T08:55:59;11.73;;;4.40;;
69542;SDS011;56762;49.494;11.768;2023-02-28T08:58:28;11.53;;;4.03;;
69542;SDS011;56762;49.494;11.768;2023-02-28T09:00:58;7.03;;;3.50;;
69542;SDS011;56762;49.494;11.768;2023-02-28T09:03:26;10.48;;;3.47;;
69542;SDS011;56762;49.494;11.768;2023-02-28T09:05:55;13.20;;;4.35;;
69542;SDS011;56762;49.494;11.768;2023-02-28T09:08:25;7.78;;;3.47;;
69542;SDS011;56762;49.494;11.768;2023-02-28T09:10:53;8.77;;;4.07;;
69542;SDS011;56762;49.494;11.768;2023-02-28T09:13:25;10.18;;;3.72;;
69542;SDS011;56762;49.494;11.768;2023-02-28T09:15:53;9.93;;;3.33;;
69542;SDS011;56762;49.494;11.768;2023-02-28T09:18:26;6.28;;;3.25;;
69542;SDS011;56762;49.494;11.768;2023-02-28T09:20:54;7.35;;;3.35;;
69542;SDS011;56762;49.494;11.768;2023-02-28T09:23:22;10.80;;;3.90;;
69542;SDS011;56762;49.494;11.768;2023-02-28T09:25:51;8.40;;;3.72;;
69542;SDS011;56762;49.494;11.768;2023-02-28T09:28:21;10.75;;;3.78;;
69542;SDS011;56762;49.494;11.768;2023-02-28T09:30:50;7.10;;;3.47;;
69542;SDS011;56762;49.494;11.768;2023-02-28T09:33:20;9.68;;;3.63;;
69542;SDS011;56762;49.494;11.768;2023-02-28T09:35:56;10.73;;;5.07;;
69542;SDS011;56762;49.494;11.768;2023-02-28T09:38:25;8.93;;;3.78;;
69542;SDS011;56762;49.494;11.768;2023-02-28T09:40:55;9.82;;;3.88;;
69542;SDS011;56762;49.494;11.768;2023-02-28T09:43:25;10.63;;;3.88;;
69542;SDS011;56762;49.494;11.768;2023-02-28T09:45:55;9.95;;;4.28;;
69542;SDS011;56762;49.494;11.768;2023-02-28T09:48:29;8.77;;;3.77;;
69542;SDS011;56762;49.494;11.768;2023-02-28T09:51:04;7.68;;;3.25;;
69542;SDS011;56762;49.494;11.768;2023-02-28T09:53:37;9.60;;;3.13;;
69542;SDS011;56762;49.494;11.768;2023-02-28T09:56:18;7.65;;;3.47;;
69542;SDS011;56762;49.494;11.768;2023-02-28T09:58:53;14.23;;;4.70;;
69542;SDS011;56762;49.494;11.768;2023-02-28T10:01:24;11.30;;;4.20;;
69542;SDS011;56762;49.494;11.768;2023-02-28T10:03:59;14.75;;;6.03;;
69542;SDS011;56762;49.494;11.768;2023-02-28T10:06:34;9.98;;;4.70;;
69542;SDS011;56762;49.494;11.768;2023-02-28T10:09:10;15.80;;;7.28;;
69542;SDS011;56762;49.494;11.768;2023-02-28T10:11:40;9.88;;;4.25;;
69542;SDS011;56762;49.494;11.768;2023-02-28T10:14:11;11.67;;;5.13;;
69542;SDS011;56762;49.494;11.768;2023-02-28T10:16:43;14.80;;;6.68;;
69542;SDS011;56762;49.494;11.768;2023-02-28T10:19:19;12.48;;;5.88;;
69542;SDS011;56762;49.494;11.768;2023-02-28T10:21:53;15.25;;;7.95;;
69542;SDS011;56762;49.494;11.768;2023-02-28T10:24:28;8.77;;;4.20;;
69542;SDS011;56762;49.494;11.768;2023-02-28T10:27:00;14.43;;;7.27;;
69542;SDS011;56762;49.494;11.768;2023-02-28T10:29:31;9.32;;;3.50;;
69542;SDS011;56762;49.494;11.768;2023-02-28T10:32:00;8.75;;;3.70;;
69542;SDS011;56762;49.494;11.768;2023-02-28T10:34:31;11.40;;;4.28;;
69542;SDS011;56762;49.494;11.768;2023-02-28T10:37:00;21.65;;;9.18;;
69542;SDS011;56762;49.494;11.768;2023-02-28T10:39:34;12.67;;;5.53;;
69542;SDS011;56762;49.494;11.768;2023-02-28T10:42:03;13.50;;;5.20;;
69542;SDS011;56762;49.494;11.768;2023-02-28T10:44:32;9.57;;;4.40;;
69542;SDS011;56762;49.494;11.768;2023-02-28T10:47:00;9.40;;;4.30;;
69542;SDS011;56762;49.494;11.768;2023-02-28T10:49:29;12.52;;;5.10;;
69542;SDS011;56762;49.494;11.768;2023-02-28T10:51:57;12.43;;;4.73;;
69542;SDS011;56762;49.494;11.768;2023-02-28T10:54:29;11.93;;;4.63;;
69542;SDS011;56762;49.494;11.768;2023-02-28T10:57:05;8.15;;;3.38;;
69542;SDS011;56762;49.494;11.768;2023-02-28T10:59:35;7.18;;;3.40;;
69542;SDS011;56762;49.494;11.768;2023-02-28T11:02:08;9.98;;;4.65;;
69542;SDS011;56762;49.494;11.768;2023-02-28T11:07:55;12.85;;;4.78;;
69542;SDS011;56762;49.494;11.768;2023-02-28T11:10:28;11.73;;;4.35;;
69542;SDS011;56762;49.494;11.768;2023-02-28T11:13:01;12.43;;;4.70;;
69542;SDS011;56762;49.494;11.768;2023-02-28T11:15:30;10.48;;;4.15;;
69542;SDS011;56762;49.494;11.768;2023-02-28T11:18:00;8.83;;;4.30;;
69542;SDS011;56762;49.494;11.768;2023-02-28T11:20:30;8.90;;;4.18;;
69542;SDS011;56762;49.494;11.768;2023-02-28T11:23:01;12.50;;;4.82;;
69542;SDS011;56762;49.494;11.768;2023-02-28T11:25:32;10.27;;;4.82;;
69542;SDS011;56762;49.494;11.768;2023-02-28T11:28:02;10.13;;;4.60;;
69542;SDS011;56762;49.494;11.768;2023-02-28T11:30:34;8.43;;;3.50;;
69542;SDS011;56762;49.494;11.768;2023-02-28T11:33:18;8.45;;;3.95;;
69542;SDS011;56762;49.494;11.768;2023-02-28T11:35:49;10.68;;;4.50;;
69542;SDS011;56762;49.494;11.768;2023-02-28T11:38:19;8.52;;;4.18;;
69542;SDS011;56762;49.494;11.768;2023-02-28T11:40:50;10.95;;;4.75;;
69542;SDS011;56762;49.494;11.768;2023-02-28T11:43:32;10.50;;;4.53;;
69542;SDS011;56762;49.494;11.768;2023-02-28T11:46:16;12.27;;;4.50;;
69542;SDS011;56762;49.494;11.768;2023-02-28T11:48:56;11.40;;;5.53;;
69542;SDS011;56762;49.494;11.768;2023-02-28T11:51:32;10.45;;;4.30;;
69542;SDS011;56762;49.494;11.768;2023-02-28T11:54:09;11.75;;;4.85;;
69542;SDS011;56762;49.494;11.768;2023-02-28T11:56:53;10.87;;;4.80;;
69542;SDS011;56762;49.494;11.768;2023-02-28T11:59:35;11.73;;;5.00;;
69542;SDS011;56762;49.494;11.768;2023-02-28T12:02:26;10.52;;;4.43;;
69542;SDS011;56762;49.494;11.768;2023-02-28T12:05:01;11.13;;;4.20;;
69542;SDS011;56762;49.494;11.768;2023-02-28T12:07:43;8.15;;;4.63;;
69542;SDS011;56762;49.494;11.768;2023-02-28T12:10:20;11.73;;;5.47;;
69542;SDS011;56762;49.494;11.768;2023-02-28T12:12:54;13.45;;;6.53;;
69542;SDS011;56762;49.494;11.768;2023-02-28T12:15:37;10.82;;;4.93;;
69542;SDS011;56762;49.494;11.768;2023-02-28T12:18:15;12.45;;;6.45;;
69542;SDS011;56762;49.494;11.768;2023-02-28T12:20:53;9.48;;;4.43;;
69542;SDS011;56762;49.494;11.768;2023-02-28T12:23:42;16.20;;;6.40;;
69542;SDS011;56762;49.494;11.768;2023-02-28T12:26:23;10.45;;;5.00;;
69542;SDS011;56762;49.494;11.768;2023-02-28T12:29:02;8.40;;;4.32;;
69542;SDS011;56762;49.494;11.768;2023-02-28T12:31:47;10.75;;;5.20;;
69542;SDS011;56762;49.494;11.768;2023-02-28T12:34:20;10.02;;;4.68;;
69542;SDS011;56762;49.494;11.768;2023-02-28T12:36:53;9.50;;;4.37;;
69542;SDS011;56762;49.494;11.768;2023-02-28T12:39:25;10.25;;;4.65;;
69542;SDS011;56762;49.494;11.768;2023-02-28T12:42:10;10.15;;;4.57;;
69542;SDS011;56762;49.494;11.768;2023-02-28T12:44:43;10.38;;;4.70;;
69542;SDS011;56762;49.494;11.768;2023-02-28T12:47:14;9.80;;;4.60;;
69542;SDS011;56762;49.494;11.768;2023-02-28T12:49:45;9.30;;;4.80;;
69542;SDS011;56762;49.494;11.768;2023-02-28T12:52:18;12.27;;;5.30;;
69542;SDS011;56762;49.494;11.768;2023-02-28T12:54:52;11.00;;;4.65;;
69542;SDS011;56762;49.494;11.768;2023-02-28T12:57:25;9.48;;;5.10;;
69542;SDS011;56762;49.494;11.768;2023-02-28T13:00:02;12.43;;;5.03;;
69542;SDS011;56762;49.494;11.768;2023-02-28T13:02:50;10.53;;;4.83;;
69542;SDS011;56762;49.494;11.768;2023-02-28T13:05:46;13.07;;;5.00;;
69542;SDS011;56762;49.494;11.768;2023-02-28T13:08:27;9.40;;;4.30;;
69542;SDS011;56762;49.494;11.768;2023-02-28T13:14:05;9.65;;;5.35;;
69542;SDS011;56762;49.494;11.768;2023-02-28T13:16:50;14.00;;;5.03;;
69542;SDS011;56762;49.494;11.768;2023-02-28T13:19:22;13.07;;;5.78;;
69542;SDS011;56762;49.494;11.768;2023-02-28T13:21:53;9.65;;;4.90;;
69542;SDS011;56762;49.494;11.768;2023-02-28T13:24:39;11.27;;;5.18;;
69542;SDS011;56762;49.494;11.768;2023-02-28T13:33:27;10.88;;;4.45;;
69542;SDS011;56762;49.494;11.768;2023-02-28T13:36:07;10.25;;;4.88;;
69542;SDS011;56762;49.494;11.768;2023-02-28T13:38:41;9.63;;;4.43;;
69542;SDS011;56762;49.494;11.768;2023-02-28T13:44:14;13.00;;;5.60;;
69542;SDS011;56762;49.494;11.768;2023-02-28T13:50:21;10.80;;;4.78;;
69542;SDS011;56762;49.494;11.768;2023-02-28T13:52:54;10.82;;;4.55;;
69542;SDS011;56762;49.494;11.768;2023-02-28T13:55:29;10.90;;;4.55;;
69542;SDS011;56762;49.494;11.768;2023-02-28T13:58:09;15.07;;;6.00;;
69542;SDS011;56762;49.494;11.768;2023-02-28T14:00:52;13.70;;;5.85;;
69542;SDS011;56762;49.494;11.768;2023-02-28T14:03:34;14.52;;;5.53;;
69542;SDS011;56762;49.494;11.768;2023-02-28T14:06:17;8.90;;;4.60;;
69542;SDS011;56762;49.494;11.768;2023-02-28T14:08:52;11.20;;;4.95;;
69542;SDS011;56762;49.494;11.768;2023-02-28T14:11:25;9.37;;;4.37;;
69542;SDS011;56762;49.494;11.768;2023-02-28T14:13:55;11.68;;;5.22;;
69542;SDS011;56762;49.494;11.768;2023-02-28T14:16:23;15.05;;;6.30;;
69542;SDS011;56762;49.494;11.768;2023-02-28T14:18:55;15.05;;;7.00;;
69542;SDS011;56762;49.494;11.768;2023-02-28T14:21:27;9.85;;;4.40;;
69542;SDS011;56762;49.494;11.768;2023-02-28T14:24:13;14.33;;;6.67;;
69542;SDS011;56762;49.494;11.768;2023-02-28T14:27:05;8.63;;;5.13;;
69542;SDS011;56762;49.494;11.768;2023-02-28T14:29:51;13.20;;;5.70;;
69542;SDS011;56762;49.494;11.768;2023-02-28T14:32:44;14.93;;;5.13;;
69542;SDS011;56762;49.494;11.768;2023-02-28T14:35:20;8.80;;;5.00;;
69542;SDS011;56762;49.494;11.768;2023-02-28T14:37:58;11.23;;;5.07;;
69542;SDS011;56762;49.494;11.768;2023-02-28T14:40:27;11.48;;;4.93;;
69542;SDS011;56762;49.494;11.768;2023-02-28T14:42:57;11.57;;;5.13;;
69542;SDS011;56762;49.494;11.768;2023-02-28T14:45:27;10.40;;;5.05;;
69542;SDS011;56762;49.494;11.768;2023-02-28T14:47:57;10.70;;;5.32;;
69542;SDS011;56762;49.494;11.768;2023-02-28T14:50:27;9.97;;;5.00;;
69542;SDS011;56762;49.494;11.768;2023-02-28T14:52:59;11.30;;;4.85;;
69542;SDS011;56762;49.494;11.768;2023-02-28T14:55:29;9.68;;;5.13;;
69542;SDS011;56762;49.494;11.768;2023-02-28T14:57:58;9.95;;;4.80;;
69542;SDS011;56762;49.494;11.768;2023-02-28T15:00:29;11.50;;;5.05;;
69542;SDS011;56762;49.494;11.768;2023-02-28T15:03:11;10.27;;;5.20;;
69542;SDS011;56762;49.494;11.768;2023-02-28T15:05:52;10.30;;;4.93;;
69542;SDS011;56762;49.494;11.768;2023-02-28T15:08:23;10.35;;;4.93;;
69542;SDS011;56762;49.494;11.768;2023-02-28T15:10:56;8.95;;;4.47;;
69542;SDS011;56762;49.494;11.768;2023-02-28T15:13:29;9.27;;;4.82;;
69542;SDS011;56762;49.494;11.768;2023-02-28T15:16:03;13.33;;;5.03;;
69542;SDS011;56762;49.494;11.768;2023-02-28T15:18:35;10.48;;;4.78;;
69542;SDS011;56762;49.494;11.768;2023-02-28T15:21:11;8.25;;;4.25;;
69542;SDS011;56762;49.494;11.768;2023-02-28T15:23:45;10.45;;;5.07;;
69542;SDS011;56762;49.494;11.768;2023-02-28T15:26:16;13.38;;;5.30;;
69542;SDS011;56762;49.494;11.768;2023-02-28T15:28:50;10.27;;;5.00;;